createdAt,value
2019-02-02T00:00:02.100Z,15.40
2019-02-02T00:02:30.344Z,14.63
2019-02-02T00:04:58.564Z,15.57
2019-02-02T00:07:26.882Z,14.10
2019-02-02T00:09:55.096Z,14.27
2019-02-02T00:12:23.340Z,15.73
2019-02-02T00:14:51.565Z,15.90
2019-02-02T00:17:19.826Z,14.30
2019-02-02T00:19:48.045Z,15.80
2019-02-02T00:22:16.293Z,14.93
2019-02-02T00:24:44.513Z,15.57
2019-02-02T00:27:13.161Z,16.00
2019-02-02T00:29:41.381Z,14.70
2019-02-02T00:32:09.629Z,14.47
2019-02-02T00:34:37.852Z,16.20
2019-02-02T00:37:06.173Z,14.63
2019-02-02T00:39:34.398Z,15.10
2019-02-02T00:42:02.648Z,16.20
2019-02-02T00:44:30.868Z,15.20
2019-02-02T00:46:59.188Z,15.33
2019-02-02T00:49:27.405Z,13.33
2019-02-02T00:51:55.656Z,13.70
2019-02-02T00:54:23.880Z,14.33
2019-02-02T00:56:52.228Z,14.53
2019-02-02T00:59:20.558Z,16.03
2019-02-02T01:01:48.868Z,15.40
2019-02-02T01:04:17.159Z,15.87
2019-02-02T01:06:45.484Z,14.90
2019-02-02T01:09:15.525Z,14.23
2019-02-02T01:11:43.817Z,13.87
2019-02-02T01:14:12.132Z,14.23
2019-02-02T01:16:40.421Z,15.30
2019-02-02T01:19:08.745Z,15.10
2019-02-02T01:21:37.032Z,15.70
2019-02-02T01:24:05.448Z,13.73
2019-02-02T01:26:33.672Z,15.63
2019-02-02T01:29:01.997Z,15.17
2019-02-02T01:31:30.217Z,15.77
2019-02-02T01:33:58.537Z,14.27
2019-02-02T01:36:26.769Z,14.87
2019-02-02T01:38:55.024Z,15.80
2019-02-02T01:41:23.248Z,16.27
2019-02-02T01:43:51.497Z,15.93
2019-02-02T01:46:19.712Z,15.27
2019-02-02T01:48:48.044Z,15.03
2019-02-02T01:51:16.329Z,15.00
2019-02-02T01:53:44.572Z,13.67
2019-02-02T01:56:12.820Z,14.73
2019-02-02T01:58:41.044Z,14.37
2019-02-02T02:01:09.256Z,14.77
2019-02-02T02:03:37.680Z,13.90
2019-02-02T02:06:05.896Z,13.97
2019-02-02T02:08:34.219Z,14.20
2019-02-02T02:11:02.469Z,14.87
2019-02-02T02:13:30.688Z,15.00
2019-02-02T02:15:58.940Z,13.93
2019-02-02T02:18:27.164Z,13.77
2019-02-02T02:20:55.411Z,14.83
2019-02-02T02:23:23.636Z,14.13
2019-02-02T02:25:51.884Z,15.50
2019-02-02T02:28:27.808Z,15.47
2019-02-02T02:30:49.992Z,15.20
2019-02-02T02:33:18.213Z,14.10
2019-02-02T02:35:46.529Z,15.50
2019-02-02T02:38:14.754Z,14.77
2019-02-02T02:40:43.026Z,14.43
2019-02-02T02:43:11.290Z,14.57
2019-02-02T02:45:39.543Z,14.47
2019-02-02T02:48:07.761Z,14.80
2019-02-02T02:50:36.008Z,13.80
2019-02-02T02:53:04.297Z,16.83
2019-02-02T02:55:32.544Z,14.37
2019-02-02T02:58:00.760Z,14.60
2019-02-02T03:00:29.729Z,14.80
2019-02-02T03:02:57.987Z,14.23
2019-02-02T03:05:26.309Z,16.27
2019-02-02T03:07:54.802Z,14.70
2019-02-02T03:10:26.365Z,14.97
2019-02-02T03:12:54.866Z,14.17
2019-02-02T03:15:23.272Z,14.27
2019-02-02T03:17:51.769Z,14.30
2019-02-02T03:20:19.992Z,14.40
2019-02-02T03:22:48.308Z,14.97
2019-02-02T03:25:17.706Z,15.13
2019-02-02T03:27:45.956Z,14.40
2019-02-02T03:30:15.245Z,14.77
2019-02-02T03:32:43.566Z,14.73
2019-02-02T03:35:12.972Z,15.07
2019-02-02T03:37:41.204Z,14.23
2019-02-02T03:40:13.820Z,14.10
2019-02-02T03:42:42.146Z,14.20
2019-02-02T03:45:11.898Z,14.77
2019-02-02T03:47:40.146Z,15.03
2019-02-02T03:50:09.270Z,14.57
2019-02-02T03:52:37.555Z,14.17
2019-02-02T03:55:07.381Z,15.43
2019-02-02T03:57:35.703Z,15.33
2019-02-02T04:00:05.453Z,14.97
2019-02-02T04:02:33.697Z,15.83
2019-02-02T04:05:01.916Z,15.70
2019-02-02T04:07:30.172Z,14.37
2019-02-02T04:09:58.416Z,15.00
2019-02-02T04:12:26.708Z,13.87
2019-02-02T04:14:54.929Z,14.03
2019-02-02T04:17:23.176Z,15.00
2019-02-02T04:19:51.406Z,14.80
2019-02-02T04:22:19.651Z,14.47
2019-02-02T04:24:47.872Z,13.33
2019-02-02T04:27:16.124Z,15.20
2019-02-02T04:29:44.339Z,14.17
2019-02-02T04:32:12.668Z,14.40
2019-02-02T04:34:40.887Z,14.43
2019-02-02T04:37:09.110Z,14.27
2019-02-02T04:39:37.355Z,15.80
2019-02-02T04:42:05.648Z,14.53
2019-02-02T04:44:33.907Z,13.70
2019-02-02T04:47:02.128Z,13.80
2019-02-02T04:49:30.380Z,14.23
2019-02-02T04:51:58.601Z,15.93
2019-02-02T04:54:26.847Z,14.67
2019-02-02T04:56:55.072Z,15.00
2019-02-02T04:59:29.262Z,14.30
2019-02-02T05:01:53.192Z,15.07
2019-02-02T05:04:21.436Z,14.53
2019-02-02T05:06:49.659Z,14.87
2019-02-02T05:09:17.908Z,14.93
2019-02-02T05:11:46.137Z,14.13
2019-02-02T05:14:14.385Z,14.80
2019-02-02T05:16:42.600Z,15.63
2019-02-02T05:19:10.857Z,15.60
2019-02-02T05:21:39.072Z,13.53
2019-02-02T05:24:07.320Z,14.90
2019-02-02T05:26:35.544Z,16.57
2019-02-02T05:29:04.160Z,14.47
2019-02-02T05:31:32.455Z,12.87
2019-02-02T05:34:00.704Z,15.07
2019-02-02T05:36:28.932Z,15.37
2019-02-02T05:38:57.176Z,16.30
2019-02-02T05:41:25.397Z,14.77
2019-02-02T05:43:53.620Z,15.87
2019-02-02T05:46:21.880Z,15.50
2019-02-02T05:48:50.096Z,16.17
2019-02-02T05:51:18.348Z,14.17
2019-02-02T05:53:46.568Z,14.03
2019-02-02T05:56:14.828Z,14.47
2019-02-02T05:58:43.047Z,16.00
2019-02-02T06:01:13.008Z,16.00
2019-02-02T06:03:41.229Z,15.60
2019-02-02T06:06:09.480Z,15.73
2019-02-02T06:08:37.696Z,15.87
2019-02-02T06:11:05.952Z,16.43
2019-02-02T06:13:34.246Z,15.63
2019-02-02T06:16:02.488Z,16.00
2019-02-02T06:18:30.736Z,15.93
2019-02-02T06:20:58.958Z,15.57
2019-02-02T06:23:27.212Z,16.17
2019-02-02T06:25:55.463Z,14.50
2019-02-02T06:28:23.709Z,15.40
2019-02-02T06:30:51.996Z,14.43
2019-02-02T06:33:20.317Z,13.83
2019-02-02T06:35:48.573Z,14.47
2019-02-02T06:38:16.797Z,14.87
2019-02-02T06:40:45.043Z,15.13
2019-02-02T06:43:13.269Z,15.13
2019-02-02T06:45:41.516Z,14.77
2019-02-02T06:48:09.834Z,15.13
2019-02-02T06:50:38.048Z,13.57
2019-02-02T06:53:06.368Z,14.40
2019-02-02T06:55:34.657Z,14.73
2019-02-02T06:58:02.980Z,14.13
2019-02-02T07:00:31.200Z,15.00
2019-02-02T07:02:59.448Z,15.13
2019-02-02T07:05:27.737Z,14.77
2019-02-02T07:07:55.988Z,15.33
2019-02-02T07:10:25.384Z,15.30
2019-02-02T07:12:53.695Z,14.40
2019-02-02T07:15:23.461Z,15.17
2019-02-02T07:17:51.717Z,15.33
2019-02-02T07:20:19.933Z,15.20
2019-02-02T07:22:48.258Z,14.47
2019-02-02T07:25:16.541Z,14.00
2019-02-02T07:27:44.788Z,15.03
2019-02-02T07:30:28.389Z,15.40
2019-02-02T07:32:47.313Z,15.90
2019-02-02T07:35:15.601Z,16.43
2019-02-02T07:37:43.913Z,15.53
2019-02-02T07:40:13.669Z,14.67
2019-02-02T07:42:41.984Z,16.03
2019-02-02T07:45:13.641Z,16.03
2019-02-02T07:47:41.897Z,17.30
2019-02-02T07:50:11.697Z,15.60
2019-02-02T07:52:39.943Z,17.07
2019-02-02T07:55:09.537Z,16.67
2019-02-02T07:57:37.784Z,17.33
2019-02-02T08:00:10.469Z,16.43
2019-02-02T08:02:38.725Z,14.77
2019-02-02T08:05:07.105Z,16.43
2019-02-02T08:07:35.432Z,15.70
2019-02-02T08:10:05.184Z,16.07
2019-02-02T08:12:33.441Z,16.87
2019-02-02T08:15:01.701Z,16.67
2019-02-02T08:17:32.297Z,17.83
2019-02-02T08:20:04.140Z,17.83
2019-02-02T08:22:32.428Z,24.47
2019-02-02T08:25:00.689Z,23.10
2019-02-02T08:27:28.909Z,22.57
2019-02-02T08:29:57.165Z,18.90
2019-02-02T08:32:25.380Z,20.23
2019-02-02T08:34:54.024Z,19.10
2019-02-02T08:37:22.249Z,18.50
2019-02-02T08:39:50.886Z,18.73
2019-02-02T08:42:19.109Z,18.70
2019-02-02T08:44:47.423Z,18.77
2019-02-02T08:47:15.641Z,19.03
2019-02-02T08:49:44.216Z,21.37
2019-02-02T08:52:12.431Z,20.27
2019-02-02T08:54:40.686Z,22.20
2019-02-02T08:57:08.946Z,22.77
2019-02-02T08:59:37.213Z,25.37
2019-02-02T09:02:05.432Z,23.43
2019-02-02T09:04:34.012Z,22.10
2019-02-02T09:07:02.332Z,24.50
2019-02-02T09:09:30.592Z,29.70
2019-02-02T09:11:58.809Z,23.40
2019-02-02T09:14:27.498Z,20.27
2019-02-02T09:16:55.744Z,20.67
2019-02-02T09:19:24.294Z,20.27
2019-02-02T09:21:52.886Z,21.37
2019-02-02T09:24:21.102Z,21.47
2019-02-02T09:26:49.344Z,19.73
2019-02-02T09:29:17.564Z,19.20
2019-02-02T09:31:45.808Z,28.60
2019-02-02T09:34:14.061Z,23.50
2019-02-02T09:36:42.350Z,18.80
2019-02-02T09:39:10.564Z,19.47
2019-02-02T09:41:40.642Z,20.67
2019-02-02T09:44:08.675Z,21.30
2019-02-02T09:46:36.921Z,21.80
2019-02-02T09:49:05.140Z,19.93
2019-02-02T09:51:33.717Z,19.80
2019-02-02T09:54:01.936Z,19.53
2019-02-02T09:56:30.185Z,21.20
2019-02-02T09:58:59.214Z,19.57
2019-02-02T10:01:28.193Z,20.80
2019-02-02T10:03:56.551Z,22.33
2019-02-02T10:06:24.808Z,21.47
2019-02-02T10:08:53.352Z,20.70
2019-02-02T10:11:21.604Z,19.33
2019-02-02T10:13:52.042Z,19.07
2019-02-02T10:16:19.716Z,18.13
2019-02-02T10:18:47.932Z,16.10
2019-02-02T10:21:16.185Z,17.60
2019-02-02T10:23:44.729Z,18.40
2019-02-02T10:26:12.972Z,18.03
2019-02-02T10:28:41.189Z,16.90
2019-02-02T10:31:09.449Z,19.17
2019-02-02T10:33:37.679Z,15.67
2019-02-02T10:36:05.904Z,17.93
2019-02-02T10:38:34.125Z,17.43
2019-02-02T10:41:02.365Z,20.10
2019-02-02T10:43:30.585Z,19.13
2019-02-02T10:45:58.904Z,20.07
2019-02-02T10:48:29.376Z,20.17
2019-02-02T10:50:57.688Z,18.90
2019-02-02T10:53:25.899Z,19.30
2019-02-02T10:55:54.155Z,20.67
2019-02-02T10:58:22.856Z,23.57
2019-02-02T11:00:51.721Z,22.40
2019-02-02T11:03:19.938Z,19.23
2019-02-02T11:05:48.199Z,17.67
2019-02-02T11:08:16.432Z,21.63
2019-02-02T11:10:44.819Z,19.70
2019-02-02T11:13:13.146Z,20.20
2019-02-02T11:15:42.992Z,22.37
2019-02-02T11:18:11.206Z,21.67
2019-02-02T11:20:39.414Z,19.97
2019-02-02T11:23:07.748Z,19.87
2019-02-02T11:25:36.262Z,21.10
2019-02-02T11:28:04.721Z,18.00
2019-02-02T11:30:33.056Z,21.03
2019-02-02T11:33:01.309Z,21.67
2019-02-02T11:35:29.631Z,24.37
2019-02-02T11:37:57.877Z,22.93
2019-02-02T11:40:30.507Z,22.17
2019-02-02T11:42:58.852Z,23.57
2019-02-02T11:45:27.341Z,24.23
2019-02-02T11:47:55.987Z,17.27
2019-02-02T11:50:24.802Z,19.10
2019-02-02T11:52:53.044Z,19.93
2019-02-02T11:55:25.155Z,20.87
2019-02-02T11:57:53.796Z,21.57
2019-02-02T12:00:23.283Z,23.13
2019-02-02T12:05:23.975Z,21.93
2019-02-02T12:07:52.819Z,22.13
2019-02-02T12:10:23.904Z,22.73
2019-02-02T12:12:52.146Z,19.50
2019-02-02T12:15:20.829Z,19.53
2019-02-02T12:17:49.836Z,19.67
2019-02-02T12:20:18.824Z,20.47
2019-02-02T12:22:47.077Z,19.67
2019-02-02T12:25:15.752Z,20.30
2019-02-02T12:27:44.942Z,19.90
2019-02-02T12:30:19.137Z,21.07
2019-02-02T12:32:47.423Z,17.30
2019-02-02T12:35:18.532Z,19.70
2019-02-02T12:37:46.815Z,18.00
2019-02-02T12:40:18.512Z,16.13
2019-02-02T12:42:47.197Z,19.20
2019-02-02T12:45:41.384Z,17.67
2019-02-02T12:48:10.164Z,19.90
2019-02-02T12:50:38.478Z,19.90
2019-02-02T12:53:06.694Z,20.57
2019-02-02T12:55:35.341Z,20.67
2019-02-02T12:58:04.831Z,20.47
2019-02-02T13:00:33.408Z,14.17
2019-02-02T13:03:01.949Z,21.13
2019-02-02T13:05:30.537Z,20.67
2019-02-02T13:07:59.143Z,19.60
2019-02-02T13:10:28.260Z,20.43
2019-02-02T13:12:56.950Z,18.60
2019-02-02T13:15:25.580Z,18.67
2019-02-02T13:17:54.196Z,18.77
2019-02-02T13:20:22.916Z,18.37
2019-02-02T13:22:51.142Z,14.97
2019-02-02T13:25:20.363Z,15.27
2019-02-02T13:27:48.895Z,17.87
2019-02-02T13:30:35.114Z,17.33
2019-02-02T13:33:03.795Z,19.63
2019-02-02T13:35:34.918Z,19.50
2019-02-02T13:38:03.598Z,18.60
2019-02-02T13:40:32.172Z,18.97
2019-02-02T13:43:00.715Z,19.27
2019-02-02T13:45:29.370Z,19.60
2019-02-02T13:47:57.576Z,19.00
2019-02-02T13:50:26.303Z,17.53
2019-02-02T13:52:54.872Z,19.03
2019-02-02T13:55:23.519Z,16.77
2019-02-02T13:57:52.064Z,18.23
2019-02-02T14:00:29.272Z,19.27
2019-02-02T14:03:02.831Z,16.20
2019-02-02T14:05:28.209Z,18.57
2019-02-02T14:07:59.901Z,19.07
2019-02-02T14:10:27.955Z,16.57
2019-02-02T14:12:56.577Z,19.93
2019-02-02T14:15:25.218Z,17.43
2019-02-02T14:17:53.833Z,20.47
2019-02-02T14:20:22.553Z,22.00
2019-02-02T14:22:50.835Z,21.73
2019-02-02T14:25:19.948Z,21.67
2019-02-02T14:27:48.337Z,20.13
2019-02-02T14:30:20.332Z,16.40
2019-02-02T14:32:48.580Z,19.37
2019-02-02T14:35:19.266Z,20.10
2019-02-02T14:37:47.577Z,19.10
2019-02-02T14:40:16.971Z,21.20
2019-02-02T14:42:45.216Z,24.97
2019-02-02T14:45:16.773Z,24.53
2019-02-02T14:47:45.024Z,22.30
2019-02-02T14:50:14.612Z,20.97
2019-02-02T14:52:43.264Z,21.63
2019-02-02T14:55:14.913Z,21.50
2019-02-02T14:57:43.576Z,22.03
2019-02-02T15:00:19.967Z,24.37
2019-02-02T15:02:48.292Z,22.83
2019-02-02T15:05:19.012Z,22.20
2019-02-02T15:07:47.588Z,24.20
2019-02-02T15:10:16.964Z,22.37
2019-02-02T15:12:45.616Z,23.20
2019-02-02T15:15:15.600Z,22.07
2019-02-02T15:17:44.707Z,19.90
2019-02-02T15:20:22.705Z,20.20
2019-02-02T15:22:51.088Z,20.40
2019-02-02T15:25:19.380Z,20.30
2019-02-02T15:27:48.098Z,21.50
2019-02-02T15:30:22.139Z,19.77
2019-02-02T15:32:50.388Z,20.13
2019-02-02T15:35:18.609Z,20.83
2019-02-02T15:37:47.189Z,19.83
2019-02-02T15:40:19.764Z,24.17
2019-02-02T15:42:48.529Z,24.63
2019-02-02T15:45:19.416Z,25.63
2019-02-02T15:47:48.064Z,27.83
2019-02-02T15:50:17.240Z,27.70
2019-02-02T15:52:46.773Z,28.47
2019-02-02T15:55:19.967Z,25.80
2019-02-02T15:57:48.684Z,26.43
2019-02-02T16:00:28.723Z,30.47
2019-02-02T16:02:57.436Z,27.67
2019-02-02T16:05:27.117Z,24.53
2019-02-02T16:07:56.829Z,22.73
2019-02-02T16:10:27.822Z,20.47
2019-02-02T16:12:56.466Z,20.03
2019-02-02T16:15:24.686Z,18.80
2019-02-02T16:17:53.433Z,18.27
2019-02-02T16:20:22.816Z,18.90
2019-02-02T16:22:51.036Z,17.33
2019-02-02T16:25:19.360Z,17.73
2019-02-02T16:27:47.903Z,16.97
2019-02-02T16:30:17.679Z,17.57
2019-02-02T16:32:45.973Z,17.63
2019-02-02T16:35:14.685Z,18.57
2019-02-02T16:37:42.900Z,18.80
2019-02-02T16:40:24.748Z,19.77
2019-02-02T16:42:53.804Z,22.87
2019-02-02T16:45:23.490Z,20.47
2019-02-02T16:47:51.972Z,21.27
2019-02-02T16:50:20.293Z,22.97
2019-02-02T16:52:48.517Z,21.63
2019-02-02T16:55:18.537Z,23.23
2019-02-02T16:57:47.217Z,23.57
2019-02-02T17:00:20.917Z,21.50
2019-02-02T17:02:49.272Z,21.37
2019-02-02T17:05:17.592Z,22.43
2019-02-02T17:07:46.524Z,22.43
2019-02-02T17:10:21.096Z,20.97
2019-02-02T17:12:49.315Z,23.83
2019-02-02T17:15:17.637Z,25.10
2019-02-02T17:17:46.245Z,24.00
2019-02-02T17:20:17.334Z,24.17
2019-02-02T17:22:46.050Z,25.30
2019-02-02T17:25:15.631Z,25.70
2019-02-02T17:27:44.754Z,25.30
2019-02-02T17:30:24.725Z,24.27
2019-02-02T17:32:53.917Z,25.00
2019-02-02T17:35:22.228Z,25.00
2019-02-02T17:37:50.524Z,23.27
2019-02-02T17:40:22.553Z,25.10
2019-02-02T17:42:50.833Z,23.63
2019-02-02T17:45:19.948Z,25.97
2019-02-02T17:47:49.248Z,22.93
2019-02-02T17:50:18.368Z,24.80
2019-02-02T17:52:46.664Z,25.43
2019-02-02T17:55:15.454Z,24.33
2019-02-02T17:57:44.075Z,22.70
2019-02-02T18:00:13.680Z,25.10
2019-02-02T18:02:42.225Z,25.77
2019-02-02T18:05:10.545Z,26.00
2019-02-02T18:07:39.120Z,24.47
2019-02-02T18:10:10.675Z,24.43
2019-02-02T18:12:39.249Z,25.47
2019-02-02T18:15:09.073Z,25.27
2019-02-02T18:17:37.620Z,24.70
2019-02-02T18:20:10.416Z,26.53
2019-02-02T18:22:38.739Z,24.20
2019-02-02T18:25:08.434Z,26.00
2019-02-02T18:27:36.685Z,24.53
2019-02-02T18:30:14.226Z,25.67
2019-02-02T18:32:42.877Z,24.57
2019-02-02T18:35:11.866Z,24.00
2019-02-02T18:37:40.517Z,27.37
2019-02-02T18:40:17.647Z,24.27
2019-02-02T18:42:45.900Z,24.87
2019-02-02T18:45:15.392Z,23.13
2019-02-02T18:47:43.963Z,23.60
2019-02-02T18:50:13.558Z,24.63
2019-02-02T18:52:42.370Z,23.80
2019-02-02T18:55:12.260Z,25.47
2019-02-02T18:57:40.896Z,24.97
2019-02-02T19:00:16.569Z,26.63
2019-02-02T19:02:45.113Z,26.07
2019-02-02T19:05:14.025Z,23.37
2019-02-02T19:07:42.633Z,24.70
2019-02-02T19:10:15.204Z,24.17
2019-02-02T19:12:43.962Z,23.83
2019-02-02T19:15:13.504Z,23.17
2019-02-02T19:17:41.783Z,23.80
2019-02-02T19:20:13.501Z,24.77
2019-02-02T19:22:41.692Z,23.03
2019-02-02T19:25:11.013Z,23.57
2019-02-02T19:27:39.597Z,22.67
2019-02-02T19:30:16.949Z,23.23
2019-02-02T19:32:45.588Z,22.80
2019-02-02T19:35:16.055Z,23.07
2019-02-02T19:37:44.359Z,24.03
2019-02-02T19:40:16.957Z,24.63
2019-02-02T19:42:45.672Z,22.10
2019-02-02T19:45:19.642Z,22.20
2019-02-02T19:47:48.658Z,23.60
2019-02-02T19:50:19.253Z,24.13
2019-02-02T19:52:47.888Z,22.57
2019-02-02T19:55:16.167Z,21.63
2019-02-02T19:57:45.015Z,22.87
2019-02-02T20:00:19.217Z,21.53
2019-02-02T20:02:47.857Z,20.17
2019-02-02T20:05:27.696Z,21.97
2019-02-02T20:07:46.763Z,21.33
2019-02-02T20:10:18.017Z,22.47
2019-02-02T20:12:47.829Z,22.77
2019-02-02T20:15:18.618Z,22.27
2019-02-02T20:17:47.192Z,22.47
2019-02-02T20:20:17.975Z,23.90
2019-02-02T20:22:46.696Z,22.37
2019-02-02T20:25:15.876Z,21.33
2019-02-02T20:27:44.189Z,23.37
2019-02-02T20:30:13.944Z,21.73
2019-02-02T20:32:42.200Z,21.67
2019-02-02T20:35:11.584Z,23.50
2019-02-02T20:37:40.300Z,24.50
2019-02-02T20:40:20.512Z,32.57
2019-02-02T20:42:48.836Z,30.13
2019-02-02T20:45:18.125Z,24.17
2019-02-02T20:47:46.740Z,23.17
2019-02-02T20:50:17.486Z,27.63
2019-02-02T20:52:47.804Z,31.50
2019-02-02T20:55:19.922Z,29.63
2019-02-02T20:57:48.606Z,29.30
2019-02-02T21:00:18.288Z,28.80
2019-02-02T21:02:46.503Z,23.47
2019-02-02T21:05:14.747Z,22.47
2019-02-02T21:07:42.972Z,23.77
2019-02-02T21:10:12.789Z,23.00
2019-02-02T21:12:41.080Z,24.43
2019-02-02T21:15:10.596Z,22.47
2019-02-02T21:17:39.347Z,22.07
2019-02-02T21:20:09.096Z,21.50
2019-02-02T21:22:37.385Z,21.10
2019-02-02T21:25:07.104Z,21.17
2019-02-02T21:27:35.400Z,23.17
2019-02-02T21:30:07.280Z,22.13
2019-02-02T21:32:35.496Z,21.23
2019-02-02T21:35:04.507Z,22.70
2019-02-02T21:37:33.052Z,22.57
2019-02-02T21:40:01.702Z,25.20
2019-02-02T21:42:30.245Z,22.73
2019-02-02T21:44:58.820Z,22.13
2019-02-02T21:47:27.103Z,23.17
2019-02-02T21:49:55.671Z,22.40
2019-02-02T21:52:24.617Z,24.80
2019-02-02T21:54:52.872Z,25.33
2019-02-02T21:57:21.412Z,21.67
2019-02-02T21:59:49.664Z,23.67
2019-02-02T22:02:17.883Z,23.07
2019-02-02T22:04:46.128Z,24.57
2019-02-02T22:07:14.646Z,24.23
2019-02-02T22:09:44.155Z,23.70
2019-02-02T22:12:12.536Z,24.27
2019-02-02T22:14:41.112Z,23.00
2019-02-02T22:17:09.428Z,25.40
2019-02-02T22:19:37.648Z,24.93
2019-02-02T22:22:05.897Z,28.80
2019-02-02T22:24:34.111Z,23.27
2019-02-02T22:27:02.357Z,23.00
2019-02-02T22:29:30.581Z,22.80
2019-02-02T22:31:59.151Z,21.20
2019-02-02T22:34:27.709Z,21.63
2019-02-02T22:36:55.956Z,21.27
2019-02-02T22:39:24.182Z,21.73
2019-02-02T22:41:52.432Z,22.87
2019-02-02T22:44:20.644Z,22.13
2019-02-02T22:46:50.117Z,22.10
2019-02-02T22:49:18.739Z,21.07
2019-02-02T22:51:46.982Z,21.50
2019-02-02T22:54:15.197Z,19.43
2019-02-02T22:56:44.431Z,20.63
2019-02-02T22:59:12.861Z,20.00
2019-02-02T23:01:41.188Z,18.90
2019-02-02T23:04:11.153Z,20.13
2019-02-02T23:06:49.725Z,21.10
2019-02-02T23:09:22.183Z,18.60
2019-02-02T23:11:53.833Z,15.10
2019-02-02T23:14:29.737Z,19.90
2019-02-02T23:16:57.976Z,19.83
2019-02-02T23:19:26.191Z,18.93
2019-02-02T23:21:54.836Z,21.40
2019-02-02T23:24:23.052Z,20.23
2019-02-02T23:26:51.832Z,19.97
2019-02-02T23:29:20.112Z,19.07
2019-02-02T23:31:48.364Z,19.57
2019-02-02T23:34:16.917Z,21.63
2019-02-02T23:36:51.404Z,20.47
2019-02-02T23:39:15.031Z,19.30
2019-02-02T23:41:43.284Z,20.43
2019-02-02T23:44:11.830Z,21.20
2019-02-02T23:46:41.363Z,20.50
2019-02-02T23:49:09.899Z,19.27
2019-02-02T23:51:38.149Z,17.50
2019-02-02T23:54:06.376Z,16.93
2019-02-02T23:56:34.619Z,19.07
2019-02-02T23:59:02.844Z,19.53
